sensor_id;sensor_type;location;lat;lon;timestamp;pressure;altitude;pressure_sealevel;temperature
72278;BMP280;61204;49.980;8.358;2022-10-16T00:01:27;100367.47;;;14.93
72278;BMP280;61204;49.980;8.358;2022-10-16T00:03:56;100368.50;;;14.86
72278;BMP280;61204;49.980;8.358;2022-10-16T00:06:24;100364.09;;;14.81
72278;BMP280;61204;49.980;8.358;2022-10-16T00:08:52;100350.75;;;14.75
72278;BMP280;61204;49.980;8.358;2022-10-16T00:11:25;100360.94;;;14.73
72278;BMP280;61204;49.980;8.358;2022-10-16T00:14:01;100367.69;;;14.70
72278;BMP280;61204;49.980;8.358;2022-10-16T00:16:29;100366.03;;;14.65
72278;BMP280;61204;49.980;8.358;2022-10-16T00:18:56;100372.81;;;14.62
72278;BMP280;61204;49.980;8.358;2022-10-16T00:21:25;100369.19;;;14.59
72278;BMP280;61204;49.980;8.358;2022-10-16T00:23:56;100368.63;;;14.61
72278;BMP280;61204;49.980;8.358;2022-10-16T00:26:30;100368.41;;;14.56
72278;BMP280;61204;49.980;8.358;2022-10-16T00:28:59;100365.44;;;14.52
72278;BMP280;61204;49.980;8.358;2022-10-16T00:31:26;100362.59;;;14.50
72278;BMP280;61204;49.980;8.358;2022-10-16T00:33:52;100370.34;;;14.54
72278;BMP280;61204;49.980;8.358;2022-10-16T00:36:21;100378.13;;;14.57
72278;BMP280;61204;49.980;8.358;2022-10-16T00:38:51;100373.22;;;14.56
72278;BMP280;61204;49.980;8.358;2022-10-16T00:41:23;100366.44;;;14.59
72278;BMP280;61204;49.980;8.358;2022-10-16T00:43:53;100356.84;;;14.74
72278;BMP280;61204;49.980;8.358;2022-10-16T00:46:38;100358.00;;;14.69
72278;BMP280;61204;49.980;8.358;2022-10-16T00:49:13;100350.31;;;14.67
72278;BMP280;61204;49.980;8.358;2022-10-16T00:51:43;100349.72;;;14.69
72278;BMP280;61204;49.980;8.358;2022-10-16T00:54:26;100360.94;;;14.73
72278;BMP280;61204;49.980;8.358;2022-10-16T00:56:58;100369.72;;;14.83
72278;BMP280;61204;49.980;8.358;2022-10-16T00:59:39;100373.09;;;14.81
72278;BMP280;61204;49.980;8.358;2022-10-16T01:02:10;100382.09;;;14.82
72278;BMP280;61204;49.980;8.358;2022-10-16T01:04:43;100384.94;;;14.84
72278;BMP280;61204;49.980;8.358;2022-10-16T01:10:35;100401.69;;;14.88
72278;BMP280;61204;49.980;8.358;2022-10-16T01:13:15;100399.38;;;14.82
72278;BMP280;61204;49.980;8.358;2022-10-16T01:15:56;100393.03;;;14.80
72278;BMP280;61204;49.980;8.358;2022-10-16T01:18:45;100382.53;;;14.76
72278;BMP280;61204;49.980;8.358;2022-10-16T01:21:38;100395.47;;;14.74
72278;BMP280;61204;49.980;8.358;2022-10-16T01:32:43;100388.44;;;14.57
72278;BMP280;61204;49.980;8.358;2022-10-16T01:35:52;100381.50;;;14.56
72278;BMP280;61204;49.980;8.358;2022-10-16T01:38:33;100381.09;;;14.62
72278;BMP280;61204;49.980;8.358;2022-10-16T01:41:10;100392.00;;;14.59
72278;BMP280;61204;49.980;8.358;2022-10-16T01:43:50;100395.41;;;14.58
72278;BMP280;61204;49.980;8.358;2022-10-16T01:46:27;100387.81;;;14.58
72278;BMP280;61204;49.980;8.358;2022-10-16T01:48:56;100388.94;;;14.67
72278;BMP280;61204;49.980;8.358;2022-10-16T01:51:27;100395.78;;;14.66
72278;BMP280;61204;49.980;8.358;2022-10-16T01:53:57;100407.53;;;14.67
72278;BMP280;61204;49.980;8.358;2022-10-16T01:56:27;100416.53;;;14.67
72278;BMP280;61204;49.980;8.358;2022-10-16T01:59:15;100417.28;;;14.68
72278;BMP280;61204;49.980;8.358;2022-10-16T02:01:57;100411.00;;;14.67
72278;BMP280;61204;49.980;8.358;2022-10-16T02:04:34;100405.22;;;14.75
72278;BMP280;61204;49.980;8.358;2022-10-16T02:07:05;100405.22;;;14.75
72278;BMP280;61204;49.980;8.358;2022-10-16T02:09:35;100412.03;;;14.74
72278;BMP280;61204;49.980;8.358;2022-10-16T02:12:25;100403.66;;;14.72
72278;BMP280;61204;49.980;8.358;2022-10-16T02:14:56;100398.66;;;14.68
72278;BMP280;61204;49.980;8.358;2022-10-16T02:17:22;100411.00;;;14.67
72278;BMP280;61204;49.980;8.358;2022-10-16T02:19:51;100408.25;;;14.67
72278;BMP280;61204;49.980;8.358;2022-10-16T02:22:29;100411.75;;;14.68
72278;BMP280;61204;49.980;8.358;2022-10-16T02:25:06;100415.94;;;14.69
72278;BMP280;61204;49.980;8.358;2022-10-16T02:28:03;100421.66;;;14.73
72278;BMP280;61204;49.980;8.358;2022-10-16T02:30:39;100427.16;;;14.73
72278;BMP280;61204;49.980;8.358;2022-10-16T02:33:23;100427.28;;;14.75
72278;BMP280;61204;49.980;8.358;2022-10-16T02:35:52;100421.84;;;14.77
72278;BMP280;61204;49.980;8.358;2022-10-16T02:38:21;100416.31;;;14.77
72278;BMP280;61204;49.980;8.358;2022-10-16T02:40:49;100421.16;;;14.76
72278;BMP280;61204;49.980;8.358;2022-10-16T02:43:15;100418.41;;;14.76
72278;BMP280;61204;49.980;8.358;2022-10-16T02:45:42;100428.09;;;14.77
72278;BMP280;61204;49.980;8.358;2022-10-16T02:48:08;100435.78;;;14.79
72278;BMP280;61204;49.980;8.358;2022-10-16T02:50:34;100443.44;;;14.80
72278;BMP280;61204;49.980;8.358;2022-10-16T02:52:59;100440.06;;;14.82
72278;BMP280;61204;49.980;8.358;2022-10-16T02:55:25;100431.69;;;14.80
72278;BMP280;61204;49.980;8.358;2022-10-16T02:57:53;100431.06;;;14.81
72278;BMP280;61204;49.980;8.358;2022-10-16T03:00:19;100434.44;;;14.80
72278;BMP280;61204;49.980;8.358;2022-10-16T03:02:46;100430.25;;;14.79
72278;BMP280;61204;49.980;8.358;2022-10-16T03:05:12;100436.06;;;14.85
72278;BMP280;61204;49.980;8.358;2022-10-16T03:07:39;100429.72;;;14.82
72278;BMP280;61204;49.980;8.358;2022-10-16T03:10:05;100442.00;;;14.79
72278;BMP280;61204;49.980;8.358;2022-10-16T03:12:31;100428.72;;;14.76
72278;BMP280;61204;49.980;8.358;2022-10-16T03:14:57;100421.03;;;14.74
72278;BMP280;61204;49.980;8.358;2022-10-16T03:17:24;100434.13;;;14.74
72278;BMP280;61204;49.980;8.358;2022-10-16T03:19:50;100429.50;;;14.78
72278;BMP280;61204;49.980;8.358;2022-10-16T03:22:16;100438.53;;;14.79
72278;BMP280;61204;49.980;8.358;2022-10-16T03:24:42;100439.97;;;14.80
72278;BMP280;61204;49.980;8.358;2022-10-16T03:27:07;100439.34;;;14.81
72278;BMP280;61204;49.980;8.358;2022-10-16T03:29:33;100448.34;;;14.82
72278;BMP280;61204;49.980;8.358;2022-10-16T03:31:59;100443.44;;;14.80
72278;BMP280;61204;49.980;8.358;2022-10-16T03:34:26;100437.19;;;14.80
72278;BMP280;61204;49.980;8.358;2022-10-16T03:36:53;100455.09;;;14.79
72278;BMP280;61204;49.980;8.358;2022-10-16T03:39:19;100453.03;;;14.79
72278;BMP280;61204;49.980;8.358;2022-10-16T03:41:45;100444.16;;;14.81
72278;BMP280;61204;49.980;8.358;2022-10-16T03:44:12;100453.16;;;14.81
72278;BMP280;61204;49.980;8.358;2022-10-16T03:46:38;100456.63;;;14.82
72278;BMP280;61204;49.980;8.358;2022-10-16T03:49:04;100446.91;;;14.81
72278;BMP280;61204;49.980;8.358;2022-10-16T03:51:29;100440.56;;;14.78
72278;BMP280;61204;49.980;8.358;2022-10-16T03:53:55;100452.91;;;14.77
72278;BMP280;61204;49.980;8.358;2022-10-16T03:56:21;100454.28;;;14.76
72278;BMP280;61204;49.980;8.358;2022-10-16T03:58:46;100452.22;;;14.77
72278;BMP280;61204;49.980;8.358;2022-10-16T04:01:12;100432.19;;;14.76
72278;BMP280;61204;49.980;8.358;2022-10-16T04:03:37;100446.69;;;14.77
72278;BMP280;61204;49.980;8.358;2022-10-16T04:06:03;100458.44;;;14.77
72278;BMP280;61204;49.980;8.358;2022-10-16T04:08:29;100469.47;;;14.77
72278;BMP280;61204;49.980;8.358;2022-10-16T04:10:54;100470.31;;;14.80
72278;BMP280;61204;49.980;8.358;2022-10-16T04:13:20;100447.53;;;14.79
72278;BMP280;61204;49.980;8.358;2022-10-16T04:15:46;100450.16;;;14.77
72278;BMP280;61204;49.980;8.358;2022-10-16T04:18:11;100453.63;;;14.78
72278;BMP280;61204;49.980;8.358;2022-10-16T04:20:37;100456.31;;;14.76
72278;BMP280;61204;49.980;8.358;2022-10-16T04:23:03;100452.84;;;14.75
72278;BMP280;61204;49.980;8.358;2022-10-16T04:25:30;100453.44;;;14.74
72278;BMP280;61204;49.980;8.358;2022-10-16T04:27:56;100454.78;;;14.73
72278;BMP280;61204;49.980;8.358;2022-10-16T04:30:22;100457.41;;;14.71
72278;BMP280;61204;49.980;8.358;2022-10-16T04:32:49;100455.91;;;14.68
72278;BMP280;61204;49.980;8.358;2022-10-16T04:35:20;100465.47;;;14.67
72278;BMP280;61204;49.980;8.358;2022-10-16T04:37:47;100470.28;;;14.66
72278;BMP280;61204;49.980;8.358;2022-10-16T04:40:13;100465.47;;;14.67
72278;BMP280;61204;49.980;8.358;2022-10-16T04:42:39;100468.25;;;14.67
72278;BMP280;61204;49.980;8.358;2022-10-16T04:45:06;100468.25;;;14.67
72278;BMP280;61204;49.980;8.358;2022-10-16T04:47:33;100465.47;;;14.67
72278;BMP280;61204;49.980;8.358;2022-10-16T04:49:59;100483.50;;;14.68
72278;BMP280;61204;49.980;8.358;2022-10-16T04:52:26;100478.69;;;14.68
72278;BMP280;61204;49.980;8.358;2022-10-16T04:54:52;100482.16;;;14.69
72278;BMP280;61204;49.980;8.358;2022-10-16T04:57:18;100488.28;;;14.67
72278;BMP280;61204;49.980;8.358;2022-10-16T04:59:44;100486.25;;;14.68
72278;BMP280;61204;49.980;8.358;2022-10-16T05:02:10;100482.75;;;14.67
72278;BMP280;61204;49.980;8.358;2022-10-16T05:04:35;100496.78;;;14.71
72278;BMP280;61204;49.980;8.358;2022-10-16T05:07:01;100501.06;;;14.74
72278;BMP280;61204;49.980;8.358;2022-10-16T05:09:26;100495.75;;;14.78
72278;BMP280;61204;49.980;8.358;2022-10-16T05:11:52;100483.41;;;14.79
72278;BMP280;61204;49.980;8.358;2022-10-16T05:14:18;100482.69;;;14.79
72278;BMP280;61204;49.980;8.358;2022-10-16T05:16:44;100467.44;;;14.78
72278;BMP280;61204;49.980;8.358;2022-10-16T05:19:09;100469.47;;;14.77
72278;BMP280;61204;49.980;8.358;2022-10-16T05:21:35;100477.75;;;14.77
72278;BMP280;61204;49.980;8.358;2022-10-16T05:24:01;100479.81;;;14.77
72278;BMP280;61204;49.980;8.358;2022-10-16T05:26:26;100468.69;;;14.75
72278;BMP280;61204;49.980;8.358;2022-10-16T05:28:52;100471.94;;;14.71
72278;BMP280;61204;49.980;8.358;2022-10-16T05:31:17;100463.44;;;14.67
72278;BMP280;61204;49.980;8.358;2022-10-16T05:33:43;100461.09;;;14.62
72278;BMP280;61204;49.980;8.358;2022-10-16T05:36:09;100467.13;;;14.58
72278;BMP280;61204;49.980;8.358;2022-10-16T05:38:36;100473.13;;;14.54
72278;BMP280;61204;49.980;8.358;2022-10-16T05:41:03;100486.81;;;14.52
72278;BMP280;61204;49.980;8.358;2022-10-16T05:43:31;100494.38;;;14.52
72278;BMP280;61204;49.980;8.358;2022-10-16T05:45:59;100501.94;;;14.51
72278;BMP280;61204;49.980;8.358;2022-10-16T05:48:27;100510.31;;;14.53
72278;BMP280;61204;49.980;8.358;2022-10-16T05:51:02;100512.47;;;14.55
72278;BMP280;61204;49.980;8.358;2022-10-16T05:53:33;100517.41;;;14.56
72278;BMP280;61204;49.980;8.358;2022-10-16T05:56:01;100523.00;;;14.58
72278;BMP280;61204;49.980;8.358;2022-10-16T05:58:30;100525.75;;;14.58
72278;BMP280;61204;49.980;8.358;2022-10-16T06:01:07;100528.66;;;14.61
72278;BMP280;61204;49.980;8.358;2022-10-16T06:03:37;100533.56;;;14.62
72278;BMP280;61204;49.980;8.358;2022-10-16T06:06:20;100539.78;;;14.63
72278;BMP280;61204;49.980;8.358;2022-10-16T06:08:49;100529.56;;;14.65
72278;BMP280;61204;49.980;8.358;2022-10-16T06:11:23;100533.16;;;14.68
72278;BMP280;61204;49.980;8.358;2022-10-16T06:13:53;100540.69;;;14.67
72278;BMP280;61204;49.980;8.358;2022-10-16T06:16:22;100533.16;;;14.68
72278;BMP280;61204;49.980;8.358;2022-10-16T06:18:52;100536.63;;;14.68
72278;BMP280;61204;49.980;8.358;2022-10-16T06:21:23;100542.88;;;14.69
72278;BMP280;61204;49.980;8.358;2022-10-16T06:23:51;100540.84;;;14.69
72278;BMP280;61204;49.980;8.358;2022-10-16T06:26:19;100526.41;;;14.71
72278;BMP280;61204;49.980;8.358;2022-10-16T06:28:48;100527.13;;;14.71
72278;BMP280;61204;49.980;8.358;2022-10-16T06:31:15;100526.53;;;14.73
72278;BMP280;61204;49.980;8.358;2022-10-16T06:33:42;100536.22;;;14.74
72278;BMP280;61204;49.980;8.358;2022-10-16T06:36:11;100536.22;;;14.74
72278;BMP280;61204;49.980;8.358;2022-10-16T06:38:40;100545.22;;;14.74
72278;BMP280;61204;49.980;8.358;2022-10-16T06:41:06;100541.88;;;14.76
72278;BMP280;61204;49.980;8.358;2022-10-16T06:43:39;100542.59;;;14.76
72278;BMP280;61204;49.980;8.358;2022-10-16T06:46:07;100546.16;;;14.79
72278;BMP280;61204;49.980;8.358;2022-10-16T06:48:36;100550.47;;;14.82
72278;BMP280;61204;49.980;8.358;2022-10-16T06:53:44;100557.00;;;14.88
72278;BMP280;61204;49.980;8.358;2022-10-16T06:56:22;100563.38;;;14.91
72278;BMP280;61204;49.980;8.358;2022-10-16T06:58:51;100565.59;;;14.95
72278;BMP280;61204;49.980;8.358;2022-10-16T07:01:20;100562.22;;;14.96
72278;BMP280;61204;49.980;8.358;2022-10-16T07:03:48;100570.72;;;15.00
72278;BMP280;61204;49.980;8.358;2022-10-16T07:06:17;100571.66;;;15.05
72278;BMP280;61204;49.980;8.358;2022-10-16T07:08:47;100586.91;;;15.06
72278;BMP280;61204;49.980;8.358;2022-10-16T07:11:16;100582.94;;;15.09
72278;BMP280;61204;49.980;8.358;2022-10-16T07:13:45;100590.59;;;15.10
72278;BMP280;61204;49.980;8.358;2022-10-16T07:16:17;100594.06;;;15.11
72278;BMP280;61204;49.980;8.358;2022-10-16T07:18:46;100582.19;;;15.08
72278;BMP280;61204;49.980;8.358;2022-10-16T07:21:19;100594.69;;;15.09
72278;BMP280;61204;49.980;8.358;2022-10-16T07:23:51;100604.47;;;15.12
72278;BMP280;61204;49.980;8.358;2022-10-16T07:26:25;100601.84;;;15.14
72278;BMP280;61204;49.980;8.358;2022-10-16T07:28:53;100613.81;;;15.19
72278;BMP280;61204;49.980;8.358;2022-10-16T07:31:20;100611.16;;;15.21
72278;BMP280;61204;49.980;8.358;2022-10-16T07:33:47;100611.47;;;15.27
72278;BMP280;61204;49.980;8.358;2022-10-16T07:36:15;100613.91;;;15.35
72278;BMP280;61204;49.980;8.358;2022-10-16T07:38:43;100619.75;;;15.41
72278;BMP280;61204;49.980;8.358;2022-10-16T07:41:12;100633.19;;;15.47
72278;BMP280;61204;49.980;8.358;2022-10-16T07:43:40;100623.66;;;15.50
72278;BMP280;61204;49.980;8.358;2022-10-16T07:46:12;100635.75;;;15.56
72278;BMP280;61204;49.980;8.358;2022-10-16T07:48:39;100633.28;;;15.62
72278;BMP280;61204;49.980;8.358;2022-10-16T07:51:06;100641.84;;;15.68
72278;BMP280;61204;49.980;8.358;2022-10-16T07:53:33;100648.41;;;15.75
72278;BMP280;61204;49.980;8.358;2022-10-16T07:56:00;100655.38;;;15.76
72278;BMP280;61204;49.980;8.358;2022-10-16T07:58:30;100647.69;;;15.74
72278;BMP280;61204;49.980;8.358;2022-10-16T08:00:57;100645.03;;;15.77
72278;BMP280;61204;49.980;8.358;2022-10-16T08:03:24;100652.94;;;15.82
72278;BMP280;61204;49.980;8.358;2022-10-16T08:05:51;100666.31;;;15.88
72278;BMP280;61204;49.980;8.358;2022-10-16T08:08:18;100672.78;;;15.92
72278;BMP280;61204;49.980;8.358;2022-10-16T08:10:44;100678.50;;;15.96
72278;BMP280;61204;49.980;8.358;2022-10-16T08:13:10;100676.75;;;16.03
72278;BMP280;61204;49.980;8.358;2022-10-16T08:15:37;100681.88;;;16.09
72278;BMP280;61204;49.980;8.358;2022-10-16T08:18:04;100677.06;;;16.09
72278;BMP280;61204;49.980;8.358;2022-10-16T08:20:31;100682.06;;;16.13
72278;BMP280;61204;49.980;8.358;2022-10-16T08:22:59;100678.69;;;16.14
72278;BMP280;61204;49.980;8.358;2022-10-16T08:25:26;100678.16;;;16.18
72278;BMP280;61204;49.980;8.358;2022-10-16T08:27:52;100683.09;;;16.19
72278;BMP280;61204;49.980;8.358;2022-10-16T08:30:20;100684.59;;;16.22
72278;BMP280;61204;49.980;8.358;2022-10-16T08:32:49;100698.13;;;16.30
72278;BMP280;61204;49.980;8.358;2022-10-16T08:35:15;100714.19;;;16.33
72278;BMP280;61204;49.980;8.358;2022-10-16T08:37:42;100717.56;;;16.46
72278;BMP280;61204;49.980;8.358;2022-10-16T08:40:38;100719.47;;;16.57
72278;BMP280;61204;49.980;8.358;2022-10-16T08:48:53;100725.59;;;16.69
72278;BMP280;61204;49.980;8.358;2022-10-16T08:51:26;100724.44;;;16.74
72278;BMP280;61204;49.980;8.358;2022-10-16T08:54:18;100724.19;;;16.84
72278;BMP280;61204;49.980;8.358;2022-10-16T08:57:20;100732.44;;;16.98
72278;BMP280;61204;49.980;8.358;2022-10-16T08:59:49;100730.06;;;17.06
72278;BMP280;61204;49.980;8.358;2022-10-16T09:05:17;100745.28;;;17.20
72278;BMP280;61204;49.980;8.358;2022-10-16T09:20:34;100779.31;;;16.93
72278;BMP280;61204;49.980;8.358;2022-10-16T09:23:29;100774.94;;;16.88
72278;BMP280;61204;49.980;8.358;2022-10-16T09:26:01;100774.34;;;16.90
72278;BMP280;61204;49.980;8.358;2022-10-16T09:28:28;100788.25;;;16.92
72278;BMP280;61204;49.980;8.358;2022-10-16T09:30:53;100777.00;;;16.88
72278;BMP280;61204;49.980;8.358;2022-10-16T09:33:22;100772.94;;;16.75
72278;BMP280;61204;49.980;8.358;2022-10-16T09:36:02;100779.63;;;17.00
72278;BMP280;61204;49.980;8.358;2022-10-16T09:38:35;100786.53;;;17.14
72278;BMP280;61204;49.980;8.358;2022-10-16T09:41:18;100792.00;;;17.28
72278;BMP280;61204;49.980;8.358;2022-10-16T09:43:59;100791.91;;;17.10
72278;BMP280;61204;49.980;8.358;2022-10-16T09:49:01;100801.81;;;17.15
72278;BMP280;61204;49.980;8.358;2022-10-16T09:51:45;100810.94;;;17.18
72278;BMP280;61204;49.980;8.358;2022-10-16T09:54:17;100805.41;;;17.18
72278;BMP280;61204;49.980;8.358;2022-10-16T09:56:45;100804.81;;;17.35
72278;BMP280;61204;49.980;8.358;2022-10-16T09:59:19;100803.19;;;17.46
72278;BMP280;61204;49.980;8.358;2022-10-16T10:01:51;100808.50;;;17.56
72278;BMP280;61204;49.980;8.358;2022-10-16T10:04:22;100813.13;;;17.67
72278;BMP280;61204;49.980;8.358;2022-10-16T10:06:52;100811.88;;;17.54
72278;BMP280;61204;49.980;8.358;2022-10-16T10:09:24;100817.25;;;17.81
72278;BMP280;61204;49.980;8.358;2022-10-16T10:11:56;100810.09;;;17.61
72278;BMP280;61204;49.980;8.358;2022-10-16T10:19:50;100811.72;;;17.66
72278;BMP280;61204;49.980;8.358;2022-10-16T10:22:42;100819.84;;;17.93
72278;BMP280;61204;49.980;8.358;2022-10-16T10:27:41;100808.63;;;17.91
72278;BMP280;61204;49.980;8.358;2022-10-16T10:31:12;100809.53;;;18.29
72278;BMP280;61204;49.980;8.358;2022-10-16T10:37:45;100807.53;;;18.65
72278;BMP280;61204;49.980;8.358;2022-10-16T10:40:40;100802.91;;;19.65
72278;BMP280;61204;49.980;8.358;2022-10-16T10:46:40;100792.59;;;20.09
72278;BMP280;61204;49.980;8.358;2022-10-16T10:55:40;100796.69;;;21.45
72278;BMP280;61204;49.980;8.358;2022-10-16T11:01:50;100794.41;;;21.14
72278;BMP280;61204;49.980;8.358;2022-10-16T11:07:15;100800.00;;;21.40
72278;BMP280;61204;49.980;8.358;2022-10-16T11:09:52;100807.69;;;21.65
72278;BMP280;61204;49.980;8.358;2022-10-16T11:12:42;100807.13;;;21.71
72278;BMP280;61204;49.980;8.358;2022-10-16T11:20:47;100789.09;;;20.98
72278;BMP280;61204;49.980;8.358;2022-10-16T11:23:28;100794.09;;;21.02
72278;BMP280;61204;49.980;8.358;2022-10-16T11:26:15;100795.97;;;20.95
72278;BMP280;61204;49.980;8.358;2022-10-16T11:28:50;100798.03;;;20.95
72278;BMP280;61204;49.980;8.358;2022-10-16T11:31:42;100805.94;;;21.02
72278;BMP280;61204;49.980;8.358;2022-10-16T11:34:20;100798.69;;;20.69
72278;BMP280;61204;49.980;8.358;2022-10-16T11:39:28;100790.16;;;20.87
72278;BMP280;61204;49.980;8.358;2022-10-16T11:42:13;100787.41;;;20.89
72278;BMP280;61204;49.980;8.358;2022-10-16T11:50:26;100773.16;;;21.27
72278;BMP280;61204;49.980;8.358;2022-10-16T11:53:32;100772.84;;;21.66
72278;BMP280;61204;49.980;8.358;2022-10-16T11:56:13;100776.88;;;21.61
72278;BMP280;61204;49.980;8.358;2022-10-16T12:04:50;100780.72;;;24.18
72278;BMP280;61204;49.980;8.358;2022-10-16T12:07:44;100770.69;;;24.53
72278;BMP280;61204;49.980;8.358;2022-10-16T12:10:34;100773.84;;;24.27
72278;BMP280;61204;49.980;8.358;2022-10-16T12:13:25;100774.84;;;25.04
72278;BMP280;61204;49.980;8.358;2022-10-16T12:18:36;100785.53;;;24.62
72278;BMP280;61204;49.980;8.358;2022-10-16T12:21:04;100786.19;;;24.60
72278;BMP280;61204;49.980;8.358;2022-10-16T12:23:55;100784.25;;;24.71
72278;BMP280;61204;49.980;8.358;2022-10-16T12:26:44;100786.91;;;26.08
72278;BMP280;61204;49.980;8.358;2022-10-16T12:32:00;100799.28;;;27.18
72278;BMP280;61204;49.980;8.358;2022-10-16T12:34:42;100792.28;;;27.68
72278;BMP280;61204;49.980;8.358;2022-10-16T12:37:23;100785.97;;;27.27
72278;BMP280;61204;49.980;8.358;2022-10-16T12:39:54;100793.97;;;26.13
72278;BMP280;61204;49.980;8.358;2022-10-16T12:44:55;100796.28;;;25.48
72278;BMP280;61204;49.980;8.358;2022-10-16T12:47:22;100803.22;;;25.41
72278;BMP280;61204;49.980;8.358;2022-10-16T12:50:48;100794.94;;;25.53
72278;BMP280;61204;49.980;8.358;2022-10-16T12:53:22;100776.75;;;25.64
72278;BMP280;61204;49.980;8.358;2022-10-16T13:02:05;100779.94;;;25.24
72278;BMP280;61204;49.980;8.358;2022-10-16T13:05:12;100787.03;;;24.71
72278;BMP280;61204;49.980;8.358;2022-10-16T13:08:20;100792.69;;;23.78
72278;BMP280;61204;49.980;8.358;2022-10-16T13:11:29;100804.59;;;23.79
72278;BMP280;61204;49.980;8.358;2022-10-16T13:14:55;100802.19;;;23.59
72278;BMP280;61204;49.980;8.358;2022-10-16T13:21:18;100798.22;;;23.74
72278;BMP280;61204;49.980;8.358;2022-10-16T13:24:13;100800.53;;;23.86
72278;BMP280;61204;49.980;8.358;2022-10-16T13:27:15;100795.56;;;23.80
72278;BMP280;61204;49.980;8.358;2022-10-16T13:29:42;100799.75;;;23.81
72278;BMP280;61204;49.980;8.358;2022-10-16T13:32:10;100785.50;;;23.65
72278;BMP280;61204;49.980;8.358;2022-10-16T13:34:48;100793.25;;;23.69
72278;BMP280;61204;49.980;8.358;2022-10-16T13:37:19;100790.34;;;23.63
72278;BMP280;61204;49.980;8.358;2022-10-16T13:39:50;100786.22;;;23.28
72278;BMP280;61204;49.980;8.358;2022-10-16T13:44:55;100787.72;;;23.33
72278;BMP280;61204;49.980;8.358;2022-10-16T13:47:26;100791.97;;;23.36
72278;BMP280;61204;49.980;8.358;2022-10-16T13:50:12;100785.94;;;23.13
72278;BMP280;61204;49.980;8.358;2022-10-16T13:52:41;100788.31;;;22.93
72278;BMP280;61204;49.980;8.358;2022-10-16T13:55:14;100768.47;;;22.79
72278;BMP280;61204;49.980;8.358;2022-10-16T13:57:43;100764.59;;;22.62
72278;BMP280;61204;49.980;8.358;2022-10-16T14:00:25;100750.06;;;22.36
72278;BMP280;61204;49.980;8.358;2022-10-16T14:03:02;100750.13;;;22.08
72278;BMP280;61204;49.980;8.358;2022-10-16T14:05:47;100777.63;;;22.19
72278;BMP280;61204;49.980;8.358;2022-10-16T14:08:17;100787.16;;;22.38
72278;BMP280;61204;49.980;8.358;2022-10-16T14:10:49;100781.59;;;22.40
72278;BMP280;61204;49.980;8.358;2022-10-16T14:13:25;100782.31;;;22.41
72278;BMP280;61204;49.980;8.358;2022-10-16T14:16:06;100781.69;;;22.44
72278;BMP280;61204;49.980;8.358;2022-10-16T14:18:37;100774.63;;;22.11
72278;BMP280;61204;49.980;8.358;2022-10-16T14:21:13;100792.78;;;22.10
72278;BMP280;61204;49.980;8.358;2022-10-16T14:23:41;100799.50;;;21.99
72278;BMP280;61204;49.980;8.358;2022-10-16T14:28:33;100798.59;;;22.20
72278;BMP280;61204;49.980;8.358;2022-10-16T14:31:02;100793.78;;;22.23
72278;BMP280;61204;49.980;8.358;2022-10-16T14:33:49;100782.31;;;22.11
72278;BMP280;61204;49.980;8.358;2022-10-16T14:36:16;100784.53;;;22.16
72278;BMP280;61204;49.980;8.358;2022-10-16T14:39:00;100786.69;;;22.20
72278;BMP280;61204;49.980;8.358;2022-10-16T14:41:30;100785.63;;;22.03
72278;BMP280;61204;49.980;8.358;2022-10-16T14:44:03;100784.41;;;22.10
72278;BMP280;61204;49.980;8.358;2022-10-16T14:46:34;100799.59;;;22.03
72278;BMP280;61204;49.980;8.358;2022-10-16T14:51:38;100795.28;;;22.28
72278;BMP280;61204;49.980;8.358;2022-10-16T14:54:08;100793.16;;;22.57
72278;BMP280;61204;49.980;8.358;2022-10-16T14:56:54;100796.13;;;22.65
72278;BMP280;61204;49.980;8.358;2022-10-16T14:59:28;100788.03;;;22.47
72278;BMP280;61204;49.980;8.358;2022-10-16T15:04:56;100788.75;;;22.17
72278;BMP280;61204;49.980;8.358;2022-10-16T15:07:23;100798.41;;;22.12
72278;BMP280;61204;49.980;8.358;2022-10-16T15:09:49;100795.78;;;22.20
72278;BMP280;61204;49.980;8.358;2022-10-16T15:12:17;100816.06;;;22.21
72278;BMP280;61204;49.980;8.358;2022-10-16T15:14:43;100797.69;;;22.12
72278;BMP280;61204;49.980;8.358;2022-10-16T15:17:11;100808.56;;;22.00
72278;BMP280;61204;49.980;8.358;2022-10-16T15:19:37;100803.16;;;21.80
72278;BMP280;61204;49.980;8.358;2022-10-16T15:22:03;100805.59;;;21.66
72278;BMP280;61204;49.980;8.358;2022-10-16T15:24:29;100814.78;;;21.70
72278;BMP280;61204;49.980;8.358;2022-10-16T15:26:54;100812.19;;;21.50
72278;BMP280;61204;49.980;8.358;2022-10-16T15:29:20;100811.50;;;21.26
72278;BMP280;61204;49.980;8.358;2022-10-16T15:31:46;100808.41;;;21.16
72278;BMP280;61204;49.980;8.358;2022-10-16T15:34:13;100813.00;;;21.05
72278;BMP280;61204;49.980;8.358;2022-10-16T15:36:40;100818.47;;;21.01
72278;BMP280;61204;49.980;8.358;2022-10-16T15:39:12;100825.09;;;20.90
72278;BMP280;61204;49.980;8.358;2022-10-16T15:41:42;100817.97;;;20.85
72278;BMP280;61204;49.980;8.358;2022-10-16T15:44:09;100823.59;;;20.87
72278;BMP280;61204;49.980;8.358;2022-10-16T15:46:35;100822.75;;;20.82
72278;BMP280;61204;49.980;8.358;2022-10-16T15:49:02;100820.69;;;20.83
72278;BMP280;61204;49.980;8.358;2022-10-16T15:51:29;100817.19;;;20.82
72278;BMP280;61204;49.980;8.358;2022-10-16T15:53:57;100819.00;;;20.74
72278;BMP280;61204;49.980;8.358;2022-10-16T15:56:27;100820.38;;;20.73
72278;BMP280;61204;49.980;8.358;2022-10-16T15:58:53;100812.41;;;20.63
72278;BMP280;61204;49.980;8.358;2022-10-16T16:01:22;100814.31;;;20.56
72278;BMP280;61204;49.980;8.358;2022-10-16T16:03:47;100820.03;;;20.60
72278;BMP280;61204;49.980;8.358;2022-10-16T16:06:19;100808.88;;;20.60
72278;BMP280;61204;49.980;8.358;2022-10-16T16:08:45;100819.94;;;20.58
72278;BMP280;61204;49.980;8.358;2022-10-16T16:11:13;100817.78;;;20.57
72278;BMP280;61204;49.980;8.358;2022-10-16T16:13:41;100810.03;;;20.53
72278;BMP280;61204;49.980;8.358;2022-10-16T16:16:13;100809.97;;;20.51
72278;BMP280;61204;49.980;8.358;2022-10-16T16:18:41;100810.34;;;20.42
72278;BMP280;61204;49.980;8.358;2022-10-16T16:21:08;100817.69;;;20.31